createdAt,value
2024-05-09T00:00:35.776Z,1.67
2024-05-09T00:03:11.400Z,1.80
2024-05-09T00:05:41.211Z,1.73
2024-05-09T00:08:09.600Z,1.85
2024-05-09T00:10:38.867Z,2.15
2024-05-09T00:13:07.884Z,2.00
2024-05-09T00:15:35.951Z,2.10
2024-05-09T00:18:04.280Z,2.00
2024-05-09T00:20:37.895Z,1.77
2024-05-09T00:23:12.729Z,1.85
2024-05-09T00:25:44.465Z,1.70
2024-05-09T00:28:13.017Z,1.50
2024-05-09T00:30:40.387Z,2.00
2024-05-09T00:33:09.163Z,1.75
2024-05-09T00:35:37.687Z,1.90
2024-05-09T00:38:05.044Z,1.60
2024-05-09T00:40:40.022Z,1.40
2024-05-09T00:43:10.950Z,1.88
2024-05-09T00:45:38.127Z,1.48
2024-05-09T00:48:08.003Z,1.80
2024-05-09T00:50:38.296Z,1.98
2024-05-09T00:53:08.117Z,1.73
2024-05-09T00:55:36.418Z,1.75
2024-05-09T00:58:05.289Z,1.98
2024-05-09T01:00:38.799Z,1.83
2024-05-09T01:03:12.882Z,1.65
2024-05-09T01:05:42.235Z,1.95
2024-05-09T01:08:10.410Z,1.73
2024-05-09T01:10:38.012Z,2.00
2024-05-09T01:13:05.778Z,1.77
2024-05-09T01:15:33.981Z,1.63
2024-05-09T01:18:04.055Z,1.73
2024-05-09T01:20:40.290Z,1.60
2024-05-09T01:23:11.207Z,1.65
2024-05-09T01:25:38.390Z,1.60
2024-05-09T01:28:05.748Z,2.03
2024-05-09T01:30:35.722Z,1.67
2024-05-09T01:33:06.780Z,1.63
2024-05-09T01:35:35.473Z,1.67
2024-05-09T01:38:02.672Z,2.00
2024-05-09T01:40:37.109Z,1.98
2024-05-09T01:43:10.980Z,1.70
2024-05-09T01:45:39.483Z,1.60
2024-05-09T01:48:07.158Z,1.83
2024-05-09T01:50:39.484Z,1.80
2024-05-09T01:53:10.352Z,1.80
2024-05-09T01:55:37.536Z,1.70
2024-05-09T01:58:04.684Z,1.50
2024-05-09T02:00:38.793Z,1.95
2024-05-09T02:03:11.522Z,1.80
2024-05-09T02:05:41.709Z,1.73
2024-05-09T02:08:13.944Z,2.00
2024-05-09T02:10:41.158Z,1.90
2024-05-09T02:13:08.132Z,1.77
2024-05-09T02:15:35.096Z,1.95
2024-05-09T02:18:02.341Z,2.10
2024-05-09T02:20:35.920Z,1.88
2024-05-09T02:23:06.573Z,1.80
2024-05-09T02:25:34.083Z,1.88
2024-05-09T02:28:01.238Z,1.90
2024-05-09T02:32:58.172Z,1.70
2024-05-09T02:35:26.555Z,1.80
2024-05-09T02:37:53.592Z,1.90
2024-05-09T02:40:28.327Z,1.90
2024-05-09T02:43:00.987Z,1.85
2024-05-09T02:45:27.853Z,1.67
2024-05-09T02:47:54.989Z,1.73
2024-05-09T02:50:29.880Z,2.08
2024-05-09T02:53:04.138Z,1.80
2024-05-09T02:55:31.287Z,1.92
2024-05-09T02:57:58.201Z,2.13
2024-05-09T03:00:34.272Z,1.75
2024-05-09T03:03:08.534Z,2.20
2024-05-09T03:05:36.866Z,1.77
2024-05-09T03:08:04.630Z,2.13
2024-05-09T03:10:36.119Z,2.10
2024-05-09T03:13:09.247Z,1.80
2024-05-09T03:15:36.295Z,1.80
2024-05-09T03:18:03.957Z,2.25
2024-05-09T03:20:34.711Z,2.22
2024-05-09T03:23:04.541Z,2.00
2024-05-09T03:25:31.770Z,2.00
2024-05-09T03:27:59.272Z,2.10
2024-05-09T03:30:38.111Z,1.98
2024-05-09T03:33:18.045Z,2.35
2024-05-09T03:35:46.813Z,2.55
2024-05-09T03:38:14.351Z,2.42
2024-05-09T03:40:45.605Z,2.20
2024-05-09T03:43:13.881Z,2.22
2024-05-09T03:45:41.825Z,2.80
2024-05-09T03:48:09.020Z,2.35
2024-05-09T03:50:37.085Z,2.67
2024-05-09T03:53:05.022Z,2.20
2024-05-09T03:55:32.440Z,2.53
2024-05-09T03:57:59.495Z,2.88
2024-05-09T04:00:35.079Z,2.38
2024-05-09T04:03:08.583Z,2.38
2024-05-09T04:05:40.041Z,2.35
2024-05-09T04:08:07.761Z,2.08
2024-05-09T04:10:35.443Z,2.50
2024-05-09T04:13:04.100Z,2.22
2024-05-09T04:15:31.475Z,2.45
2024-05-09T04:17:58.854Z,2.13
2024-05-09T04:20:36.515Z,2.30
2024-05-09T04:23:08.052Z,1.85
2024-05-09T04:25:35.858Z,2.30
2024-05-09T04:28:02.880Z,2.60
2024-05-09T04:30:37.454Z,2.78
2024-05-09T04:33:09.485Z,3.00
2024-05-09T04:35:38.944Z,2.78
2024-05-09T04:38:06.543Z,2.58
2024-05-09T04:40:36.220Z,2.95
2024-05-09T04:43:05.621Z,3.03
2024-05-09T04:45:33.027Z,2.88
2024-05-09T04:48:00.463Z,2.92
2024-05-09T04:50:36.093Z,3.10
2024-05-09T04:53:07.774Z,3.25
2024-05-09T04:55:36.301Z,2.90
2024-05-09T04:58:03.283Z,3.10
2024-05-09T05:00:36.034Z,2.92
2024-05-09T05:03:13.036Z,3.10
2024-05-09T05:05:42.628Z,3.55
2024-05-09T05:08:14.091Z,2.85
2024-05-09T05:13:22.288Z,3.10
2024-05-09T05:18:19.549Z,3.38
2024-05-09T05:20:46.775Z,3.00
2024-05-09T05:23:16.282Z,3.10
2024-05-09T05:25:43.784Z,3.03
2024-05-09T05:28:10.883Z,3.00
2024-05-09T05:30:38.695Z,3.17
2024-05-09T05:33:07.548Z,2.97
2024-05-09T05:35:35.884Z,3.40
2024-05-09T05:38:03.802Z,3.08
2024-05-09T05:40:36.133Z,3.42
2024-05-09T05:43:09.747Z,3.17
2024-05-09T05:45:37.124Z,3.33
2024-05-09T05:48:06.146Z,3.38
2024-05-09T05:50:36.748Z,2.88
2024-05-09T05:53:10.173Z,2.60
2024-05-09T05:55:41.051Z,2.47
2024-05-09T05:58:12.174Z,2.20
2024-05-09T06:00:41.192Z,2.50
2024-05-09T06:03:10.274Z,1.95
2024-05-09T06:05:40.353Z,2.30
2024-05-09T06:08:08.591Z,2.15
2024-05-09T06:10:39.353Z,2.22
2024-05-09T06:13:10.488Z,2.10
2024-05-09T06:15:37.635Z,2.10
2024-05-09T06:18:08.502Z,1.90
2024-05-09T06:20:37.965Z,2.08
2024-05-09T06:23:10.098Z,2.35
2024-05-09T06:25:37.828Z,2.00
2024-05-09T06:28:05.293Z,2.10
2024-05-09T06:30:42.195Z,1.70
2024-05-09T06:33:12.903Z,2.20
2024-05-09T06:35:41.954Z,2.05
2024-05-09T06:38:09.698Z,1.90
2024-05-09T06:40:42.824Z,1.80
2024-05-09T06:43:19.249Z,2.08
2024-05-09T06:45:52.452Z,1.98
2024-05-09T06:48:20.481Z,2.20
2024-05-09T06:50:47.879Z,2.20
2024-05-09T06:53:15.712Z,1.88
2024-05-09T06:55:43.009Z,1.85
2024-05-09T06:58:10.048Z,2.22
2024-05-09T07:00:39.986Z,1.98
2024-05-09T07:05:42.634Z,2.10
2024-05-09T07:08:09.861Z,1.77
2024-05-09T07:10:37.313Z,2.08
2024-05-09T07:13:11.970Z,2.15
2024-05-09T07:15:39.842Z,2.40
2024-05-09T07:18:19.957Z,2.10
2024-05-09T07:20:49.221Z,2.30
2024-05-09T07:23:17.640Z,1.90
2024-05-09T07:25:44.882Z,2.22
2024-05-09T07:28:17.478Z,2.47
2024-05-09T07:30:45.052Z,2.00
2024-05-09T07:33:20.232Z,2.00
2024-05-09T07:35:48.646Z,2.33
2024-05-09T07:38:15.701Z,2.20
2024-05-09T07:40:43.127Z,2.80
2024-05-09T07:43:16.415Z,2.42
2024-05-09T07:45:51.750Z,2.35
2024-05-09T07:52:38.636Z,2.10
2024-05-09T07:53:49.104Z,2.25
2024-05-09T07:56:21.839Z,2.30
2024-05-09T07:58:51.762Z,2.35
2024-05-09T08:01:19.639Z,2.13
2024-05-09T08:03:46.802Z,2.28
2024-05-09T08:06:14.139Z,2.30
2024-05-09T08:08:41.105Z,2.08
2024-05-09T08:11:07.960Z,2.05
2024-05-09T08:13:34.902Z,2.05
2024-05-09T08:16:01.842Z,2.20
2024-05-09T08:18:29.008Z,2.00
2024-05-09T08:20:56.212Z,2.58
2024-05-09T08:23:23.951Z,2.00
2024-05-09T08:25:52.857Z,2.15
2024-05-09T08:28:19.875Z,2.45
2024-05-09T08:30:47.037Z,2.25
2024-05-09T08:33:14.310Z,2.42
2024-05-09T08:35:41.311Z,2.28
2024-05-09T08:38:09.793Z,2.78
2024-05-09T08:40:38.059Z,2.40
2024-05-09T08:43:11.425Z,2.30
2024-05-09T08:45:43.766Z,2.08
2024-05-09T08:48:14.796Z,2.30
2024-05-09T08:50:44.631Z,2.10
2024-05-09T08:53:12.408Z,1.80
2024-05-09T08:55:43.283Z,1.65
2024-05-09T08:58:20.538Z,1.95
2024-05-09T09:00:48.339Z,1.98
2024-05-09T09:03:18.979Z,1.88
2024-05-09T09:06:07.291Z,2.43
2024-05-09T09:08:34.312Z,2.10
2024-05-09T09:11:01.216Z,2.13
2024-05-09T09:13:29.390Z,2.10
2024-05-09T09:16:00.063Z,2.15
2024-05-09T09:18:31.050Z,2.45
2024-05-09T09:20:58.304Z,2.28
2024-05-09T09:23:29.730Z,1.98
2024-05-09T09:26:00.302Z,2.05
2024-05-09T09:28:27.354Z,2.10
2024-05-09T09:31:00.586Z,2.35
2024-05-09T09:33:31.253Z,2.10
2024-05-09T09:35:58.351Z,2.33
2024-05-09T09:38:30.184Z,2.50
2024-05-09T09:40:57.536Z,2.10
2024-05-09T09:43:26.139Z,2.60
2024-05-09T09:45:55.282Z,2.30
2024-05-09T09:48:23.539Z,2.47
2024-05-09T09:50:52.648Z,2.30
2024-05-09T09:53:20.200Z,2.47
2024-05-09T09:55:48.308Z,3.40
2024-05-09T09:58:17.565Z,4.18
2024-05-09T10:00:45.272Z,3.15
2024-05-09T10:03:12.519Z,3.45
2024-05-09T10:05:42.203Z,3.78
2024-05-09T10:08:12.350Z,3.40
2024-05-09T10:10:39.964Z,2.67
2024-05-09T10:13:08.860Z,3.58
2024-05-09T10:15:52.804Z,4.90
2024-05-09T10:18:28.175Z,5.75
2024-05-09T10:20:57.617Z,4.93
2024-05-09T10:23:31.112Z,5.18
2024-05-09T10:26:00.135Z,5.10
2024-05-09T10:28:31.938Z,3.80
2024-05-09T10:31:08.973Z,4.82
2024-05-09T10:33:47.080Z,5.25
2024-05-09T10:36:21.719Z,4.70
2024-05-09T10:38:53.578Z,4.75
2024-05-09T10:41:21.863Z,4.28
2024-05-09T10:43:49.325Z,4.50
2024-05-09T10:46:16.960Z,4.68
2024-05-09T10:48:44.687Z,4.70
2024-05-09T10:51:13.229Z,3.83
2024-05-09T10:53:44.623Z,4.15
2024-05-09T10:58:39.884Z,5.18
2024-05-09T11:01:08.858Z,4.68
2024-05-09T11:03:36.581Z,5.63
2024-05-09T11:06:04.259Z,4.25
2024-05-09T11:08:32.722Z,5.30
2024-05-09T11:11:00.383Z,6.13
2024-05-09T11:13:36.238Z,5.63
2024-05-09T11:16:04.207Z,4.65
2024-05-09T11:18:35.574Z,4.57
2024-05-09T11:21:13.320Z,4.63
2024-05-09T11:23:41.373Z,4.68
2024-05-09T11:26:09.412Z,4.85
2024-05-09T11:28:36.306Z,4.30
2024-05-09T11:31:10.713Z,4.50
2024-05-09T11:33:43.113Z,4.90
2024-05-09T11:36:11.004Z,5.10
2024-05-09T11:38:37.965Z,5.20
2024-05-09T11:41:05.557Z,5.38
2024-05-09T11:43:32.851Z,4.78
2024-05-09T11:46:00.767Z,4.38
2024-05-09T11:48:28.157Z,4.05
2024-05-09T11:50:56.626Z,5.00
2024-05-09T11:53:23.737Z,4.40
2024-05-09T11:55:50.767Z,3.80
2024-05-09T11:58:18.903Z,3.60
2024-05-09T12:00:47.179Z,4.50
2024-05-09T12:03:14.676Z,5.30
2024-05-09T12:05:42.004Z,5.10
2024-05-09T12:08:09.367Z,4.97
2024-05-09T12:10:37.100Z,4.93
2024-05-09T12:13:06.899Z,4.90
2024-05-09T12:15:37.527Z,6.10
2024-05-09T12:18:06.490Z,4.63
2024-05-09T12:20:38.141Z,4.78
2024-05-09T12:23:08.891Z,5.13
2024-05-09T12:25:37.466Z,5.72
2024-05-09T12:28:04.653Z,4.65
2024-05-09T12:30:36.983Z,5.30
2024-05-09T12:33:15.918Z,4.70
2024-05-09T12:35:45.381Z,4.80
2024-05-09T12:40:42.536Z,3.60
2024-05-09T12:43:10.812Z,3.83
2024-05-09T12:45:39.186Z,4.70
2024-05-09T12:48:11.706Z,3.88
2024-05-09T12:50:39.589Z,4.85
2024-05-09T12:53:06.584Z,5.22
2024-05-09T12:55:41.430Z,4.78
2024-05-09T12:58:16.746Z,4.25
2024-05-09T13:00:45.140Z,4.75
2024-05-09T13:03:12.365Z,3.90
2024-05-09T13:05:41.445Z,4.80
2024-05-09T13:08:08.800Z,3.65
2024-05-09T13:10:36.045Z,5.10
2024-05-09T13:13:03.080Z,4.43
2024-05-09T13:15:31.111Z,5.95
2024-05-09T13:18:02.156Z,5.30
2024-05-09T13:20:34.309Z,4.50
2024-05-09T13:23:04.811Z,4.30
2024-05-09T13:25:34.341Z,3.80
2024-05-09T13:28:01.514Z,3.55
2024-05-09T13:30:37.356Z,4.00
2024-05-09T13:33:07.528Z,3.63
2024-05-09T13:35:35.815Z,4.05
2024-05-09T13:38:04.374Z,4.10
2024-05-09T13:40:35.102Z,3.80
2024-05-09T13:43:05.133Z,3.60
2024-05-09T13:45:33.166Z,3.70
2024-05-09T13:48:00.647Z,3.60
2024-05-09T13:50:34.457Z,3.60
2024-05-09T13:53:05.755Z,3.78
2024-05-09T13:55:33.839Z,3.22
2024-05-09T13:58:01.387Z,3.38
2024-05-09T14:00:41.729Z,3.42
2024-05-09T14:03:14.554Z,3.35
2024-05-09T14:05:41.925Z,5.38
2024-05-09T14:08:09.230Z,3.45
2024-05-09T14:10:36.390Z,4.20
2024-05-09T14:13:03.423Z,4.80
2024-05-09T14:15:30.396Z,3.33
2024-05-09T14:17:57.447Z,4.30
2024-05-09T14:20:30.896Z,3.90
2024-05-09T14:23:02.052Z,4.88
2024-05-09T14:25:30.563Z,4.22
2024-05-09T14:27:58.527Z,5.72
2024-05-09T14:30:34.179Z,4.78
2024-05-09T14:33:06.065Z,4.10
2024-05-09T14:35:34.029Z,4.10
2024-05-09T14:38:01.082Z,4.72
2024-05-09T14:40:38.791Z,4.40
2024-05-09T14:45:37.742Z,4.18
2024-05-09T14:48:05.838Z,3.90
2024-05-09T14:50:37.184Z,3.83
2024-05-09T14:53:11.042Z,6.47
2024-05-09T14:55:40.484Z,5.15
2024-05-09T14:58:10.288Z,5.43
2024-05-09T15:00:42.988Z,5.10
2024-05-09T15:03:13.493Z,5.70
2024-05-09T15:05:40.976Z,5.68
2024-05-09T15:08:08.674Z,4.53
2024-05-09T15:10:37.006Z,4.32
2024-05-09T15:13:06.573Z,4.43
2024-05-09T15:15:35.142Z,4.60
2024-05-09T15:18:03.554Z,4.53
2024-05-09T15:20:35.227Z,3.95
2024-05-09T15:23:06.093Z,3.92
2024-05-09T15:25:34.521Z,3.47
2024-05-09T15:28:01.711Z,3.13
2024-05-09T15:30:32.083Z,3.90
2024-05-09T15:33:03.854Z,4.05
2024-05-09T15:35:31.945Z,3.72
2024-05-09T15:37:59.259Z,3.88
2024-05-09T15:40:35.441Z,3.65
2024-05-09T15:43:07.296Z,3.70
2024-05-09T15:45:34.826Z,3.92
2024-05-09T15:48:02.844Z,3.67
2024-05-09T15:50:37.105Z,3.25
2024-05-09T15:53:08.247Z,3.35
2024-05-09T15:55:36.174Z,3.60
2024-05-09T15:58:04.641Z,3.78
2024-05-09T16:00:38.022Z,3.42
2024-05-09T16:03:13.883Z,3.47
2024-05-09T16:05:48.276Z,3.30
2024-05-09T16:08:16.355Z,3.60
2024-05-09T16:10:46.001Z,3.45
2024-05-09T16:13:14.190Z,4.82
2024-05-09T16:15:43.038Z,3.25
2024-05-09T16:18:10.797Z,5.93
2024-05-09T16:20:41.118Z,6.05
2024-05-09T16:23:09.976Z,6.30
2024-05-09T16:25:40.172Z,7.68
2024-05-09T16:28:10.152Z,6.35
2024-05-09T16:30:40.900Z,6.15
2024-05-09T16:33:08.595Z,4.97
2024-05-09T16:35:37.047Z,4.30
2024-05-09T16:38:04.450Z,4.90
2024-05-09T16:40:37.986Z,4.13
2024-05-09T16:43:14.036Z,3.67
2024-05-09T16:45:43.950Z,3.72
2024-05-09T16:48:11.718Z,4.25
2024-05-09T16:50:39.124Z,4.28
2024-05-09T16:53:07.109Z,4.22
2024-05-09T16:55:35.338Z,4.30
2024-05-09T16:58:03.453Z,4.25
2024-05-09T17:00:38.921Z,4.00
2024-05-09T17:03:11.786Z,4.18
2024-05-09T17:05:40.233Z,4.05
2024-05-09T17:08:08.208Z,4.10
2024-05-09T17:10:36.345Z,4.30
2024-05-09T17:13:05.503Z,4.25
2024-05-09T17:15:34.086Z,4.15
2024-05-09T17:18:01.946Z,4.20
2024-05-09T17:20:33.743Z,4.00
2024-05-09T17:23:04.839Z,4.35
2024-05-09T17:25:32.553Z,4.18
2024-05-09T17:28:06.429Z,4.90
2024-05-09T17:30:37.244Z,4.30
2024-05-09T17:33:07.521Z,4.20
2024-05-09T17:35:36.111Z,3.80
2024-05-09T17:38:03.196Z,4.28
2024-05-09T17:40:33.904Z,4.25
2024-05-09T17:43:04.486Z,4.60
2024-05-09T17:45:32.272Z,4.50
2024-05-09T17:47:59.913Z,4.70
2024-05-09T17:50:34.966Z,4.93
2024-05-09T17:53:04.902Z,5.30
2024-05-09T17:55:32.128Z,5.10
2024-05-09T17:57:59.387Z,4.50
2024-05-09T18:00:37.372Z,4.65
2024-05-09T18:03:08.235Z,4.60
2024-05-09T18:05:37.027Z,4.10
2024-05-09T18:08:05.617Z,4.20
2024-05-09T18:10:37.010Z,8.55
2024-05-09T18:13:07.206Z,5.18
2024-05-09T18:15:34.800Z,8.90
2024-05-09T18:18:03.178Z,8.15
2024-05-09T18:20:39.891Z,8.82
2024-05-09T18:23:11.753Z,11.05
2024-05-09T18:25:38.770Z,10.10
2024-05-09T18:28:07.010Z,9.10
2024-05-09T18:30:36.323Z,10.00
2024-05-09T18:33:06.543Z,9.10
2024-05-09T18:35:35.005Z,11.75
2024-05-09T18:38:02.149Z,11.80
2024-05-09T18:40:34.355Z,13.63
2024-05-09T18:43:07.173Z,14.57
2024-05-09T18:45:36.684Z,13.52
2024-05-09T18:48:05.061Z,14.20
2024-05-09T18:50:36.848Z,11.23
2024-05-09T18:53:06.612Z,10.70
2024-05-09T18:55:33.841Z,7.65
2024-05-09T18:58:01.048Z,7.57
2024-05-09T19:00:34.623Z,7.65
2024-05-09T19:03:09.114Z,7.63
2024-05-09T19:05:38.453Z,7.88
2024-05-09T19:08:06.163Z,7.50
2024-05-09T19:10:35.048Z,6.93
2024-05-09T19:13:08.234Z,7.85
2024-05-09T19:15:39.528Z,7.43
2024-05-09T19:18:07.345Z,7.38
2024-05-09T19:20:36.236Z,7.38
2024-05-09T19:23:05.998Z,7.28
2024-05-09T19:25:34.480Z,7.60
2024-05-09T19:28:01.763Z,7.70
2024-05-09T19:30:37.266Z,8.25
2024-05-09T19:33:09.079Z,7.55
2024-05-09T19:35:36.686Z,8.00
2024-05-09T19:38:04.013Z,8.10
2024-05-09T19:40:33.386Z,7.28
2024-05-09T19:43:02.864Z,6.50
2024-05-09T19:45:30.764Z,7.18
2024-05-09T19:47:58.190Z,6.30
2024-05-09T19:50:32.836Z,7.85
2024-05-09T19:53:08.486Z,7.03
2024-05-09T19:55:35.501Z,6.28
2024-05-09T19:58:05.328Z,6.68
2024-05-09T20:00:40.319Z,8.27
2024-05-09T20:03:10.089Z,7.65
2024-05-09T20:05:38.490Z,8.55
2024-05-09T20:08:06.438Z,7.38
2024-05-09T20:10:35.529Z,8.07
2024-05-09T20:13:05.151Z,8.25
2024-05-09T20:15:35.070Z,7.72
2024-05-09T20:18:02.590Z,7.68
2024-05-09T20:20:37.330Z,8.20
2024-05-09T20:23:08.638Z,8.90
2024-05-09T20:25:35.760Z,10.20
2024-05-09T20:28:02.795Z,9.77
2024-05-09T20:30:32.935Z,9.13
2024-05-09T20:33:07.108Z,7.68
2024-05-09T20:35:35.561Z,7.78
2024-05-09T20:38:03.527Z,6.55
2024-05-09T20:40:35.526Z,6.63
2024-05-09T20:43:06.207Z,6.07
2024-05-09T20:45:33.849Z,5.65
2024-05-09T20:48:01.440Z,6.07
2024-05-09T20:50:36.670Z,5.45
2024-05-09T20:53:13.109Z,4.70
2024-05-09T20:55:41.346Z,5.07
2024-05-09T20:58:09.274Z,4.75
2024-05-09T21:00:40.507Z,4.57
2024-05-09T21:03:11.711Z,4.90
2024-05-09T21:05:39.614Z,4.40
2024-05-09T21:08:07.194Z,4.00
2024-05-09T21:10:35.836Z,4.50
2024-05-09T21:13:03.831Z,4.45
2024-05-09T21:15:31.797Z,4.20
2024-05-09T21:17:59.097Z,4.28
2024-05-09T21:20:31.485Z,4.43
2024-05-09T21:23:00.399Z,4.45
2024-05-09T21:25:27.548Z,4.40
2024-05-09T21:27:54.715Z,4.88
2024-05-09T21:30:32.219Z,4.30
2024-05-09T21:33:09.911Z,4.18
2024-05-09T21:35:38.298Z,4.60
2024-05-09T21:38:05.751Z,4.38
2024-05-09T21:40:35.310Z,4.10
2024-05-09T21:43:04.811Z,4.93
2024-05-09T21:45:32.099Z,4.05
2024-05-09T21:47:59.259Z,4.60
2024-05-09T21:50:32.064Z,4.28
2024-05-09T21:53:06.347Z,3.80
2024-05-09T21:55:33.431Z,3.88
2024-05-09T21:58:00.462Z,3.97
2024-05-09T22:00:34.778Z,3.95
2024-05-09T22:03:05.475Z,3.65
2024-05-09T22:05:33.062Z,3.58
2024-05-09T22:08:00.433Z,3.78
2024-05-09T22:10:33.503Z,4.10
2024-05-09T22:13:02.936Z,4.20
2024-05-09T22:15:30.080Z,4.13
2024-05-09T22:17:57.598Z,4.15
2024-05-09T22:20:34.237Z,3.97
2024-05-09T22:23:05.063Z,3.60
2024-05-09T22:25:32.954Z,3.72
2024-05-09T22:28:01.595Z,3.90
2024-05-09T22:30:35.827Z,3.78
2024-05-09T22:33:11.060Z,3.47
2024-05-09T22:35:39.648Z,3.78
2024-05-09T22:38:06.762Z,3.13
2024-05-09T22:40:43.309Z,3.72
2024-05-09T22:43:23.361Z,3.75
2024-05-09T22:45:55.612Z,3.88
2024-05-09T22:48:24.246Z,3.30
2024-05-09T22:50:51.936Z,3.47
2024-05-09T22:53:18.935Z,3.85
2024-05-09T22:55:45.841Z,3.33
2024-05-09T22:58:12.765Z,3.47
2024-05-09T23:00:40.174Z,3.88
2024-05-09T23:03:07.175Z,3.78
2024-05-09T23:05:34.288Z,3.60
2024-05-09T23:08:02.071Z,3.58
2024-05-09T23:10:35.620Z,3.83
2024-05-09T23:13:05.827Z,4.25
2024-05-09T23:15:32.820Z,3.72
2024-05-09T23:17:59.893Z,3.65
2024-05-09T23:20:35.824Z,3.50
2024-05-09T23:23:07.186Z,3.70
2024-05-09T23:25:34.506Z,3.75
2024-05-09T23:28:01.690Z,4.18
2024-05-09T23:30:36.539Z,3.38
2024-05-09T23:33:07.073Z,3.88
2024-05-09T23:35:34.091Z,3.85
2024-05-09T23:38:01.026Z,3.70
2024-05-09T23:40:37.550Z,4.25
2024-05-09T23:43:07.847Z,3.90
2024-05-09T23:45:35.092Z,3.88
2024-05-09T23:48:02.847Z,4.22
2024-05-09T23:50:35.706Z,4.10
2024-05-09T23:53:06.370Z,4.00
2024-05-09T23:55:34.375Z,4.20
2024-05-09T23:58:01.337Z,3.83
